Time,TemperatureF,DewpointF,PressureIn,WindDirection,WindDirectionDegrees,WindSpeedMPH,WindSpeedGustMPH,Humidity,HourlyPrecipIn,Conditions,Clouds,dailyrainin,SoftwareType,DateUTC
2013-05-06 00:12:00,50.2,37.2,29.85,WNW,292,0.0,0.9,61,0.00,,,0.00,meteobridge,2013-05-06 07:12:00,
2013-05-06 00:27:00,52.0,37.6,29.85,WNW,293,0.9,0.9,58,0.00,,,0.00,meteobridge,2013-05-06 07:27:00,
2013-05-06 00:42:00,49.5,37.0,29.84,WNW,293,0.0,0.0,62,0.00,,,0.00,meteobridge,2013-05-06 07:42:00,
2013-05-06 00:57:00,48.2,36.1,29.85,WNW,293,0.0,0.0,63,0.00,,,0.00,meteobridge,2013-05-06 07:57:00,
2013-05-06 01:12:00,48.2,36.7,29.85,WNW,293,0.0,0.0,64,0.00,,,0.00,meteobridge,2013-05-06 08:12:00,
2013-05-06 01:27:00,47.7,37.6,29.85,WNW,293,0.0,0.0,68,0.00,,,0.00,meteobridge,2013-05-06 08:27:00,
2013-05-06 01:43:00,46.4,37.2,29.85,WNW,293,0.0,0.0,70,0.00,,,0.00,meteobridge,2013-05-06 08:43:00,
2013-05-06 01:58:00,45.9,37.4,29.85,WNW,291,0.9,0.9,72,0.00,,,0.00,meteobridge,2013-05-06 08:58:00,
2013-05-06 02:13:00,45.3,37.2,29.85,WNW,291,0.0,0.0,73,0.00,,,0.00,meteobridge,2013-05-06 09:13:00,
2013-05-06 02:28:00,45.7,37.2,29.85,WNW,291,0.0,0.0,72,0.00,,,0.00,meteobridge,2013-05-06 09:28:00,
2013-05-06 02:43:00,45.0,36.5,29.85,WNW,291,0.0,0.0,72,0.00,,,0.00,meteobridge,2013-05-06 09:43:00,
2013-05-06 02:58:00,44.6,36.9,29.85,WNW,290,0.0,0.0,74,0.00,,,0.00,meteobridge,2013-05-06 09:58:00,
2013-05-06 03:13:00,43.9,36.5,29.85,WNW,291,0.0,0.0,75,0.00,,,0.00,meteobridge,2013-05-06 10:13:00,
2013-05-06 03:28:00,44.1,37.0,29.85,WNW,291,0.0,0.0,76,0.00,,,0.00,meteobridge,2013-05-06 10:28:00,
2013-05-06 03:43:00,43.9,36.5,29.85,WNW,291,0.0,0.0,75,0.00,,,0.00,meteobridge,2013-05-06 10:43:00,
2013-05-06 03:59:00,43.5,36.9,29.85,WNW,291,0.0,0.0,77,0.00,,,0.00,meteobridge,2013-05-06 10:59:00,
2013-05-06 04:14:00,42.8,36.7,29.85,WNW,291,0.0,0.0,79,0.00,,,0.00,meteobridge,2013-05-06 11:14:00,
2013-05-06 04:29:00,42.1,36.3,29.85,WNW,289,0.0,0.0,80,0.00,,,0.00,meteobridge,2013-05-06 11:29:00,
2013-05-06 04:44:00,42.1,36.3,29.85,WNW,289,0.0,0.0,80,0.00,,,0.00,meteobridge,2013-05-06 11:44:00,
2013-05-06 04:59:00,42.1,36.3,29.86,WNW,288,0.0,0.0,80,0.00,,,0.00,meteobridge,2013-05-06 11:59:00,
2013-05-06 05:14:00,41.9,36.1,29.86,WNW,289,0.0,0.0,80,0.00,,,0.00,meteobridge,2013-05-06 12:14:00,
2013-05-06 05:29:00,41.9,36.1,29.86,WNW,289,0.0,0.0,80,0.00,,,0.00,meteobridge,2013-05-06 12:29:00,
2013-05-06 05:44:00,42.3,36.1,29.86,WNW,289,0.0,0.0,79,0.00,,,0.00,meteobridge,2013-05-06 12:44:00,
2013-05-06 05:59:00,42.4,36.7,29.86,WNW,289,0.0,0.9,80,0.00,,,0.00,meteobridge,2013-05-06 12:59:00,
2013-05-06 06:15:00,43.5,37.0,29.86,NNE,31,0.0,0.0,78,0.00,,,0.00,meteobridge,2013-05-06 13:15:00,
2013-05-06 06:30:00,44.8,37.8,29.86,NNE,31,0.0,0.0,76,0.00,,,0.00,meteobridge,2013-05-06 13:30:00,
2013-05-06 06:46:00,45.1,38.3,29.86,NNE,31,0.0,0.0,77,0.00,,,0.00,meteobridge,2013-05-06 13:46:00,
2013-05-06 07:01:00,48.2,39.2,29.86,NNE,31,0.0,0.0,71,0.00,,,0.00,meteobridge,2013-05-06 14:01:00,
2013-05-06 07:16:00,50.9,39.6,29.86,NNE,31,0.0,0.0,65,0.00,,,0.00,meteobridge,2013-05-06 14:16:00,
2013-05-06 07:31:00,51.3,38.7,29.86,NNE,31,0.0,0.0,62,0.00,,,0.00,meteobridge,2013-05-06 14:31:00,
2013-05-06 07:46:00,52.0,39.0,29.86,NNE,31,0.0,0.0,61,0.00,,,0.00,meteobridge,2013-05-06 14:46:00,
2013-05-06 08:01:00,53.8,40.3,29.85,NE,46,0.0,0.0,60,0.00,,,0.00,meteobridge,2013-05-06 15:01:00,
2013-05-06 08:16:00,55.8,40.3,29.85,West,265,0.0,0.0,56,0.00,,,0.00,meteobridge,2013-05-06 15:16:00,
2013-05-06 08:31:00,58.1,41.0,29.85,ESE,122,0.0,0.0,53,0.00,,,0.00,meteobridge,2013-05-06 15:31:00,
2013-05-06 08:46:00,60.8,38.1,29.85,NNE,24,2.0,10.1,43,0.00,,,0.00,meteobridge,2013-05-06 15:46:00,
2013-05-06 09:02:00,61.7,38.3,29.84,NE,45,0.9,4.0,42,0.00,,,0.00,meteobridge,2013-05-06 16:02:00,
2013-05-06 09:17:00,62.2,38.3,29.85,NE,34,0.9,10.1,41,0.00,,,0.00,meteobridge,2013-05-06 16:17:00,
2013-05-06 09:32:00,62.8,39.9,29.85,NW,320,0.0,2.9,43,0.00,,,0.00,meteobridge,2013-05-06 16:32:00,
2013-05-06 09:47:00,64.0,39.2,29.84,NE,46,0.9,4.9,40,0.00,,,0.00,meteobridge,2013-05-06 16:47:00,
2013-05-06 10:02:00,65.7,40.1,29.84,ENE,63,2.9,2.9,39,0.00,,,0.00,meteobridge,2013-05-06 17:02:00,
2013-05-06 10:17:00,66.6,42.8,29.84,NNW,333,0.0,2.0,42,0.00,,,0.00,meteobridge,2013-05-06 17:17:00,
2013-05-06 10:32:00,67.6,40.5,29.83,SE,141,0.9,2.9,37,0.00,,,0.00,meteobridge,2013-05-06 17:32:00,
2013-05-06 10:47:00,68.7,41.4,29.83,WSW,244,0.0,4.0,37,0.00,,,0.00,meteobridge,2013-05-06 17:47:00,
2013-05-06 11:02:00,70.5,40.1,29.83,NE,51,0.9,4.0,33,0.00,,,0.00,meteobridge,2013-05-06 18:02:00,
2013-05-06 11:17:00,72.3,39.9,29.82,ENE,68,0.0,6.0,31,0.00,,,0.00,meteobridge,2013-05-06 18:17:00,
2013-05-06 11:32:00,73.9,40.5,29.81,East,96,0.0,0.9,30,0.00,,,0.00,meteobridge,2013-05-06 18:32:00,
2013-05-06 11:47:00,75.4,41.7,29.80,SSE,155,0.0,2.0,30,0.00,,,0.00,meteobridge,2013-05-06 18:47:00,
2013-05-06 12:02:00,76.5,37.9,29.80,North,4,2.9,2.9,25,0.00,,,0.00,meteobridge,2013-05-06 19:02:00,
2013-05-06 12:18:00,76.8,39.4,29.79,East,98,0.9,0.9,26,0.00,,,0.00,meteobridge,2013-05-06 19:18:00,
2013-05-06 12:33:00,77.5,34.5,29.79,ENE,60,2.9,2.9,21,0.00,,,0.00,meteobridge,2013-05-06 19:33:00,
2013-05-06 12:48:00,78.3,35.1,29.78,NE,41,0.9,4.0,21,0.00,,,0.00,meteobridge,2013-05-06 19:48:00,
2013-05-06 13:03:00,78.4,34.0,29.78,NNE,25,0.9,2.9,20,0.00,,,0.00,meteobridge,2013-05-06 20:03:00,
2013-05-06 13:18:00,79.0,35.8,29.77,NNE,24,0.9,2.0,21,0.00,,,0.00,meteobridge,2013-05-06 20:18:00,
2013-05-06 13:33:00,79.2,35.8,29.77,SW,231,0.0,0.9,21,0.00,,,0.00,meteobridge,2013-05-06 20:33:00,
2013-05-06 13:48:00,79.9,34.0,29.76,NNE,25,2.0,2.9,19,0.00,,,0.00,meteobridge,2013-05-06 20:48:00,
2013-05-06 14:03:00,79.5,33.6,29.76,NNE,20,0.9,2.0,19,0.00,,,0.00,meteobridge,2013-05-06 21:03:00,
2013-05-06 14:18:00,79.9,32.5,29.75,NNE,29,2.0,2.9,18,0.00,,,0.00,meteobridge,2013-05-06 21:18:00,
2013-05-06 14:33:00,79.5,36.1,29.75,WNW,295,0.0,0.9,21,0.00,,,0.00,meteobridge,2013-05-06 21:33:00,
2013-05-06 14:48:00,79.5,33.6,29.74,SSE,168,0.0,0.9,19,0.00,,,0.00,meteobridge,2013-05-06 21:48:00,
2013-05-06 15:03:00,80.4,33.1,29.74,SSE,157,0.0,0.9,18,0.00,,,0.00,meteobridge,2013-05-06 22:03:00,
2013-05-06 15:18:00,80.2,31.5,29.73,WNW,301,0.0,0.9,17,0.00,,,0.00,meteobridge,2013-05-06 22:18:00,
2013-05-06 15:33:00,79.9,32.5,29.72,SSW,195,0.0,0.0,18,0.00,,,0.00,meteobridge,2013-05-06 22:33:00,
2013-05-06 15:48:00,79.5,30.9,29.72,SSW,205,0.0,2.0,17,0.00,,,0.00,meteobridge,2013-05-06 22:48:00,
2013-05-06 16:03:00,80.1,32.7,29.71,North,11,0.0,0.9,18,0.00,,,0.00,meteobridge,2013-05-06 23:03:00,
2013-05-06 16:18:00,79.5,27.9,29.71,NE,35,0.0,2.9,15,0.00,,,0.00,meteobridge,2013-05-06 23:18:00,
2013-05-06 16:33:00,80.6,30.2,29.70,WNW,285,0.9,2.0,16,0.00,,,0.00,meteobridge,2013-05-06 23:33:00,
2013-05-06 16:48:00,81.0,23.5,29.70,SE,130,0.0,0.9,12,0.00,,,0.00,meteobridge,2013-05-06 23:48:00,
2013-05-06 17:03:00,80.2,25.0,29.70,East,80,0.0,0.9,13,0.00,,,0.00,meteobridge,2013-05-07 00:03:00,
2013-05-06 17:18:00,80.4,31.6,29.70,West,263,0.9,0.9,17,0.00,,,0.00,meteobridge,2013-05-07 00:18:00,
2013-05-06 17:34:00,80.2,31.5,29.70,SE,145,0.0,0.0,17,0.00,,,0.00,meteobridge,2013-05-07 00:34:00,
2013-05-06 17:49:00,79.9,34.0,29.69,West,272,0.0,0.9,19,0.00,,,0.00,meteobridge,2013-05-07 00:49:00,
2013-05-06 18:04:00,79.5,29.5,29.69,SE,139,0.0,0.9,16,0.00,,,0.00,meteobridge,2013-05-07 01:04:00,
2013-05-06 18:19:00,79.3,32.2,29.68,SSE,153,0.0,0.0,18,0.00,,,0.00,meteobridge,2013-05-07 01:19:00,
2013-05-06 18:35:00,79.0,33.3,29.68,SE,140,0.0,0.0,19,0.00,,,0.00,meteobridge,2013-05-07 01:35:00,
2013-05-06 18:50:00,78.1,33.8,29.67,SE,139,0.0,0.0,20,0.00,,,0.00,meteobridge,2013-05-07 01:50:00,
2013-05-06 19:05:00,76.8,34.0,29.67,SE,140,0.0,0.0,21,0.00,,,0.00,meteobridge,2013-05-07 02:05:00,
2013-05-06 19:20:00,76.8,31.5,29.67,SE,139,0.0,0.0,19,0.00,,,0.00,meteobridge,2013-05-07 02:20:00,
2013-05-06 19:35:00,75.2,33.8,29.67,SE,140,0.0,0.0,22,0.00,,,0.00,meteobridge,2013-05-07 02:35:00,
2013-05-06 19:50:00,72.5,38.5,29.67,SE,140,0.0,0.0,29,0.00,,,0.00,meteobridge,2013-05-07 02:50:00,
2013-05-06 20:05:00,70.2,41.2,29.67,SE,140,0.0,0.0,35,0.00,,,0.00,meteobridge,2013-05-07 03:05:00,
2013-05-06 20:20:00,67.6,39.7,29.68,SE,139,0.0,0.0,36,0.00,,,0.00,meteobridge,2013-05-07 03:20:00,
2013-05-06 20:35:00,65.5,39.2,29.68,SE,139,0.0,0.9,38,0.00,,,0.00,meteobridge,2013-05-07 03:35:00,
2013-05-06 20:50:00,63.9,39.7,29.68,SE,140,0.0,0.0,41,0.00,,,0.00,meteobridge,2013-05-07 03:50:00,
2013-05-06 21:05:00,62.6,39.7,29.69,SE,140,0.0,0.9,43,0.00,,,0.00,meteobridge,2013-05-07 04:05:00,
2013-05-06 21:20:00,61.5,40.5,29.69,SE,139,0.0,0.0,46,0.00,,,0.00,meteobridge,2013-05-07 04:20:00,
2013-05-06 21:35:00,60.6,40.3,29.70,SE,139,0.0,0.9,47,0.00,,,0.00,meteobridge,2013-05-07 04:35:00,
2013-05-06 21:50:00,59.7,40.5,29.70,SE,139,0.0,0.0,49,0.00,,,0.00,meteobridge,2013-05-07 04:50:00,
2013-05-06 22:05:00,59.4,40.6,29.70,SE,139,0.0,0.0,50,0.00,,,0.00,meteobridge,2013-05-07 05:05:00,
2013-05-06 22:20:00,58.5,40.5,29.70,SE,139,0.0,0.0,51,0.00,,,0.00,meteobridge,2013-05-07 05:20:00,
2013-05-06 22:35:00,57.6,41.5,29.71,SE,139,0.0,0.0,55,0.00,,,0.00,meteobridge,2013-05-07 05:35:00,
2013-05-06 22:50:00,55.8,40.8,29.70,SE,139,0.0,0.0,57,0.00,,,0.00,meteobridge,2013-05-07 05:50:00,
2013-05-06 23:05:00,55.2,40.3,29.71,SE,139,0.0,0.0,57,0.00,,,0.00,meteobridge,2013-05-07 06:05:00,
2013-05-06 23:21:00,54.9,39.9,29.71,SE,140,0.0,0.0,57,0.00,,,0.00,meteobridge,2013-05-07 06:21:00,
2013-05-06 23:36:00,54.1,40.1,29.72,SE,139,0.0,0.0,59,0.00,,,0.00,meteobridge,2013-05-07 06:36:00,
2013-05-06 23:51:00,53.1,40.5,29.72,SE,140,0.0,0.0,62,0.00,,,0.00,meteobridge,2013-05-07 06:51:00,